Time;durP1;ratioP1;P1;durP2;ratioP2;P2;SDS_P1;SDS_P2;PMS_P1;PMS_P2;Temp;Humidity;BMP_temperature;BMP_pressure;BME280_temperature;BME280_humidity;BME280_pressure;Samples;Min_cycle;Max_cycle;Signal;HPM_P1;HPM_P2
2024/01/09 00:01:33;;;;;;;4.73;2.10;;;-0.80;82.50;;;0.58;56.39;103735.84;3083141;46;20441;-65
2024/01/09 00:04:01;;;;;;;3.13;2.17;;;-0.90;82.20;;;0.57;56.02;103734.16;3083016;46;20495;-67
2024/01/09 00:06:30;;;;;;;4.20;2.47;;;-0.90;81.70;;;0.54;56.19;103731.63;3081906;46;20577;-65
2024/01/09 00:08:58;;;;;;;3.43;2.20;;;-0.90;81.50;;;0.54;56.56;103731.63;3082090;46;20449;-66
2024/01/09 00:11:26;;;;;;;3.60;2.30;;;-0.90;82.00;;;0.55;56.41;103736.78;3082327;46;20545;-67
2024/01/09 00:13:56;;;;;;;4.73;2.87;;;-0.90;81.90;;;0.60;56.05;103744.44;3082684;46;20441;-65
2024/01/09 00:16:24;;;;;;;3.63;2.30;;;-0.80;81.80;;;0.62;56.05;103740.06;3082206;46;20556;-65
2024/01/09 00:18:55;;;;;;;3.97;2.37;;;-0.80;82.00;;;0.64;55.62;103740.91;3082037;46;20539;-66
2024/01/09 00:21:24;;;;;;;4.17;2.10;;;-0.80;80.60;;;0.62;55.81;103742.66;3082411;46;20484;-67
2024/01/09 00:23:52;;;;;;;3.00;2.27;;;-0.80;81.00;;;0.63;55.80;103740.03;3082234;46;20433;-66
2024/01/09 00:26:21;;;;;;;3.17;2.40;;;-0.80;80.80;;;0.66;55.54;103744.31;3081964;46;20434;-66
2024/01/09 00:28:50;;;;;;;3.00;2.20;;;-0.80;80.90;;;0.64;55.28;103746.09;3082181;46;20631;-67
2024/01/09 00:31:18;;;;;;;3.03;2.27;;;-0.80;80.30;;;0.59;54.75;103742.75;3081551;46;20463;-67
2024/01/09 00:33:46;;;;;;;2.87;2.20;;;-0.80;79.30;;;0.53;55.00;103742.88;3082121;46;21040;-67
2024/01/09 00:36:15;;;;;;;3.70;2.43;;;-0.80;79.40;;;0.50;55.43;103745.56;3082191;46;20948;-67
2024/01/09 00:38:43;;;;;;;5.37;2.60;;;-0.90;80.00;;;0.46;55.14;103749.09;3081508;46;20446;-67
2024/01/09 00:41:12;;;;;;;3.13;2.17;;;-0.90;79.70;;;0.43;55.06;103746.56;3081859;46;20442;-67
2024/01/09 00:43:40;;;;;;;7.97;2.60;;;-1.00;79.90;;;0.42;55.20;103745.72;3081984;46;20433;-67
2024/01/09 00:46:09;;;;;;;3.50;2.10;;;-1.00;79.90;;;0.41;55.16;103748.34;3082056;46;20556;-67
2024/01/09 00:48:37;;;;;;;3.63;2.17;;;-1.00;80.30;;;0.41;55.56;103749.19;3081231;46;20505;-67
2024/01/09 00:51:06;;;;;;;4.20;2.20;;;-1.00;80.40;;;0.43;55.32;103751.75;3081183;46;20442;-67
2024/01/09 00:53:34;;;;;;;2.90;2.30;;;-1.00;80.20;;;0.41;55.17;103746.59;3082039;46;20458;-66
2024/01/09 00:56:03;;;;;;;5.40;2.33;;;-1.00;80.30;;;0.43;55.52;103741.38;3081347;46;20469;-70
2024/01/09 00:58:32;;;;;;;3.30;2.40;;;-1.00;80.50;;;0.43;55.52;103743.97;3081262;46;20507;-63
2024/01/09 01:01:00;;;;;;;5.97;2.40;;;-1.00;80.30;;;0.42;55.11;103739.69;3081797;46;20578;-67
2024/01/09 01:03:29;;;;;;;4.40;2.07;;;-1.00;80.50;;;0.41;55.46;103743.16;3081850;46;20467;-67
2024/01/09 01:05:57;;;;;;;5.33;2.83;;;-1.00;80.40;;;0.42;55.33;103747.47;3081840;46;20439;-67
2024/01/09 01:08:26;;;;;;;3.17;2.00;;;-1.00;80.20;;;0.44;55.44;103750.88;3080894;46;20449;-67
2024/01/09 01:10:54;;;;;;;3.87;2.33;;;-1.00;80.30;;;0.45;55.63;103750.00;3080666;46;20442;-67
2024/01/09 01:13:22;;;;;;;3.13;2.10;;;-1.00;81.00;;;0.49;55.45;103747.28;3081844;46;20446;-67
2024/01/09 01:15:51;;;;;;;3.30;2.27;;;-0.90;80.70;;;0.49;54.96;103741.25;3081498;46;20448;-66
2024/01/09 01:18:19;;;;;;;2.63;1.93;;;-0.90;79.80;;;0.45;54.67;103744.81;3081155;46;21107;-67
2024/01/09 01:20:48;;;;;;;7.07;2.50;;;-0.90;79.80;;;0.42;54.50;103750.06;3081561;46;20434;-67
2024/01/09 01:23:16;;;;;;;4.03;2.37;;;-1.00;79.10;;;0.39;54.94;103750.13;3081616;46;20512;-66
2024/01/09 01:25:45;;;;;;;6.87;3.27;;;-1.00;79.30;;;0.39;55.10;103761.34;3081724;46;20529;-65
2024/01/09 01:28:13;;;;;;;3.67;2.33;;;-1.00;79.70;;;0.37;54.31;103751.88;3080877;46;20474;-66
2024/01/09 01:30:41;;;;;;;3.93;2.43;;;-1.00;79.10;;;0.35;54.66;103754.53;3081566;46;20460;-67
2024/01/09 01:33:10;;;;;;;4.27;2.53;;;-1.00;79.50;;;0.36;55.04;103750.19;3081465;46;20491;-67
2024/01/09 01:35:38;;;;;;;3.97;2.20;;;-1.00;79.60;;;0.37;55.09;103736.34;3081181;46;20447;-67
2024/01/09 01:38:07;;;;;;;3.23;2.27;;;-1.10;79.70;;;0.43;54.79;103749.16;3081029;46;20536;-67
2024/01/09 01:40:35;;;;;;;4.83;2.67;;;-1.00;79.80;;;0.46;54.78;103751.69;3081489;46;20438;-67
2024/01/09 01:43:05;;;;;;;3.33;2.43;;;-1.00;79.30;;;0.45;54.74;103745.63;3081098;46;20427;-67
2024/01/09 01:45:33;;;;;;;3.87;2.80;;;-1.00;79.20;;;0.44;54.55;103749.13;3081367;46;20434;-67
2024/01/09 01:48:04;;;;;;;4.93;2.10;;;-1.00;79.40;;;0.42;54.34;103750.91;3081098;46;20446;-67
2024/01/09 01:50:33;;;;;;;3.47;2.33;;;-1.00;79.10;;;0.39;54.56;103745.78;3081013;46;21014;-67
2024/01/09 01:53:05;;;;;;;6.40;2.73;;;-1.00;79.30;;;0.43;54.96;103746.56;3080809;46;20566;-67
2024/01/09 01:55:35;;;;;;;4.57;2.90;;;-0.90;79.10;;;0.45;54.46;103748.22;3081142;46;20450;-65
2024/01/09 01:58:04;;;;;;;3.90;2.10;;;-0.90;78.80;;;0.46;54.08;103746.50;3080238;46;20560;-66
2024/01/09 02:00:34;;;;;;;3.30;2.10;;;-1.00;78.30;;;0.39;54.01;103745.78;3080893;46;20457;-67
2024/01/09 02:03:03;;;;;;;4.40;2.73;;;-1.00;77.80;;;0.35;53.96;103740.72;3080521;46;21004;-67
2024/01/09 02:05:33;;;;;;;4.87;2.73;;;-1.00;78.00;;;0.30;54.21;103735.66;3081047;46;21122;-64
2024/01/09 02:08:05;;;;;;;4.97;2.23;;;-1.00;77.80;;;0.29;53.87;103740.84;3080638;46;20450;-67
2024/01/09 02:10:33;;;;;;;4.03;2.70;;;-1.10;77.90;;;0.30;54.42;103743.41;3080393;46;20438;-65
2024/01/09 02:13:02;;;;;;;4.80;2.90;;;-1.10;78.30;;;0.34;54.26;103741.59;3080991;46;20510;-68
2024/01/09 02:15:30;;;;;;;4.03;2.30;;;-1.10;78.10;;;0.34;53.62;103744.19;3080775;46;20515;-64
2024/01/09 02:17:59;;;;;;;4.73;2.67;;;-1.10;77.80;;;0.32;53.55;103743.38;3080411;46;21126;-66
2024/01/09 02:20:27;;;;;;;6.37;3.00;;;-1.10;77.10;;;0.26;53.20;103746.94;3080303;46;21117;-66
2024/01/09 02:22:55;;;;;;;6.07;2.77;;;-1.10;76.80;;;0.18;53.44;103751.44;3080838;46;21081;-66
2024/01/09 02:25:24;;;;;;;5.60;2.73;;;-1.20;76.90;;;0.15;53.46;103742.88;3080922;46;20500;-69
2024/01/09 02:28:14;;;;;;;3.47;2.60;;;-1.20;76.40;;;0.10;53.73;103752.47;3080428;46;20501;-66
2024/01/09 02:30:45;;;;;;;6.70;2.70;;;-1.30;77.60;;;0.12;53.75;103745.56;3080946;46;20434;-67
2024/01/09 02:33:14;;;;;;;3.50;2.50;;;-1.30;77.20;;;0.12;54.13;103745.56;3079833;46;21015;-66
2024/01/09 02:35:43;;;;;;;4.67;2.60;;;-1.30;77.60;;;0.16;53.96;103748.06;3080946;46;20442;-64
2024/01/09 02:38:11;;;;;;;4.43;2.73;;;-1.20;77.90;;;0.19;53.61;103744.53;3080353;46;20446;-64
2024/01/09 02:40:40;;;;;;;5.80;2.87;;;-1.20;77.20;;;0.18;53.38;103748.00;3081166;46;20434;-66
2024/01/09 02:43:08;;;;;;;5.57;2.93;;;-1.20;77.20;;;0.18;53.54;103748.00;3080963;46;20434;-67
2024/01/09 02:45:37;;;;;;;3.60;2.83;;;-1.20;77.40;;;0.17;53.60;103752.31;3080802;46;20433;-65
2024/01/09 02:48:06;;;;;;;4.10;2.43;;;-1.20;77.00;;;0.16;53.59;103737.69;3080170;46;20444;-67
2024/01/09 02:50:35;;;;;;;4.43;2.70;;;-1.20;76.90;;;0.15;53.71;103742.88;3080549;46;20449;-66
2024/01/09 02:53:03;;;;;;;4.47;2.50;;;-1.20;78.20;;;0.16;53.25;103750.63;3080854;46;21104;-66
2024/01/09 02:55:32;;;;;;;5.23;3.03;;;-1.20;76.90;;;0.13;53.37;103755.00;3080686;46;20580;-66
2024/01/09 02:58:00;;;;;;;4.40;3.10;;;-1.30;76.80;;;0.09;53.37;103761.16;3080207;46;20587;-67
2024/01/09 03:00:30;;;;;;;6.13;3.13;;;-1.30;76.70;;;0.05;53.23;103759.53;3079874;46;20461;-65
2024/01/09 03:02:58;;;;;;;5.37;2.87;;;-1.30;76.70;;;0.04;53.22;103760.38;3080653;46;21146;-66
2024/01/09 03:05:27;;;;;;;4.07;3.20;;;-1.40;77.00;;;0.00;53.51;103763.03;3080417;46;20438;-67
2024/01/09 03:07:58;;;;;;;4.23;2.80;;;-1.40;77.30;;;-0.02;53.58;103751.88;3080349;46;20481;-66
2024/01/09 03:10:26;;;;;;;5.07;2.97;;;-1.40;76.90;;;-0.04;53.63;103753.63;3080347;46;20485;-66
2024/01/09 03:12:55;;;;;;;5.10;2.70;;;-1.40;77.30;;;-0.06;53.42;103757.13;3080824;46;20519;-67
2024/01/09 03:15:23;;;;;;;5.23;3.03;;;-1.40;77.00;;;-0.06;53.93;103758.00;3082997;46;20438;-66
2024/01/09 03:17:51;;;;;;;5.90;3.00;;;-1.40;78.10;;;-0.03;54.09;103752.78;3082130;46;20445;-64
2024/01/09 03:20:20;;;;;;;5.50;3.00;;;-1.40;77.90;;;0.00;54.00;103752.69;3082855;46;20437;-67
2024/01/09 03:22:48;;;;;;;4.53;3.20;;;-1.40;77.70;;;0.01;53.61;103753.53;3082912;46;20439;-64
2024/01/09 03:25:17;;;;;;;4.60;3.00;;;-1.40;77.50;;;-0.01;53.74;103750.13;3082800;46;20462;-66
2024/01/09 03:27:45;;;;;;;6.80;2.70;;;-1.40;77.50;;;0.00;53.82;103747.50;3082099;46;20901;-66
2024/01/09 03:30:13;;;;;;;5.17;3.20;;;-1.40;77.70;;;0.03;53.89;103750.91;3082845;46;20429;-67
2024/01/09 03:32:42;;;;;;;6.80;3.53;;;-1.40;78.10;;;0.10;53.78;103757.66;3082797;46;20434;-67
2024/01/09 03:35:10;;;;;;;7.27;2.90;;;-1.30;77.80;;;0.14;53.65;103759.31;3083046;46;21043;-64
2024/01/09 03:37:39;;;;;;;6.73;3.80;;;-1.30;77.90;;;0.19;53.90;103744.53;3082255;46;21066;-66
2024/01/09 03:40:08;;;;;;;5.43;3.17;;;-1.20;78.10;;;0.23;53.80;103741.00;3082547;46;20503;-63
2024/01/09 03:42:36;;;;;;;7.00;3.13;;;-1.20;77.70;;;0.26;53.50;103748.69;3082563;46;20999;-64
2024/01/09 03:45:08;;;;;;;5.07;3.00;;;-1.20;77.40;;;0.28;53.64;103739.16;3082415;46;20458;-66
2024/01/09 03:47:37;;;;;;;6.17;2.70;;;-1.10;77.30;;;0.31;53.74;103736.50;3082249;46;20502;-67
2024/01/09 03:50:05;;;;;;;3.63;2.60;;;-1.10;77.40;;;0.29;53.43;103733.94;3082419;46;20571;-66
2024/01/09 03:52:34;;;;;;;4.50;2.43;;;-1.10;76.80;;;0.27;53.40;103732.25;3082810;46;20553;-64
2024/01/09 03:55:02;;;;;;;2.97;2.67;;;-1.10;77.20;;;0.28;53.75;103736.56;3082712;46;20454;-67
2024/01/09 03:57:31;;;;;;;5.90;3.10;;;-1.10;77.50;;;0.30;53.77;103734.78;3082224;46;20484;-67
2024/01/09 03:59:59;;;;;;;4.00;2.63;;;-1.10;77.70;;;0.29;53.85;103736.53;3082650;46;20472;-67
2024/01/09 04:02:29;;;;;;;5.37;3.27;;;-1.10;77.50;;;0.30;53.71;103737.38;3082455;46;20440;-65
2024/01/09 04:04:57;;;;;;;4.60;2.77;;;-1.10;77.70;;;0.31;53.76;103737.34;3082334;46;21019;-64
2024/01/09 04:07:26;;;;;;;4.37;2.87;;;-1.10;77.90;;;0.32;53.58;103733.88;3082030;46;20494;-67
2024/01/09 04:09:54;;;;;;;4.53;2.73;;;-1.00;77.90;;;0.32;53.70;103733.00;3082303;46;20434;-64
2024/01/09 04:12:22;;;;;;;5.77;3.10;;;-1.10;77.10;;;0.28;53.46;103736.56;3082655;46;20435;-65
2024/01/09 04:14:51;;;;;;;3.67;2.87;;;-1.10;78.10;;;0.26;53.93;103738.34;3082272;46;20458;-66
2024/01/09 04:17:19;;;;;;;6.13;2.73;;;-1.10;77.80;;;0.26;53.79;103735.75;3082039;46;20446;-66
2024/01/09 04:19:48;;;;;;;4.07;2.83;;;-1.10;77.70;;;0.24;53.74;103740.13;3081962;46;20575;-67
2024/01/09 04:22:16;;;;;;;4.97;2.97;;;-1.10;77.30;;;0.24;53.99;103740.94;3082314;46;20434;-65
2024/01/09 04:24:44;;;;;;;5.40;2.70;;;-1.10;77.90;;;0.23;53.79;103739.25;3081995;46;20459;-66
2024/01/09 04:27:13;;;;;;;4.43;2.93;;;-1.20;77.70;;;0.23;53.84;103738.41;3081979;46;21072;-65
2024/01/09 04:29:41;;;;;;;5.30;3.00;;;-1.10;77.90;;;0.24;53.88;103734.94;3082100;46;20524;-66
2024/01/09 04:32:09;;;;;;;5.63;2.60;;;-1.10;77.80;;;0.24;53.90;103732.34;3081298;46;20569;-65
2024/01/09 04:34:38;;;;;;;6.60;3.23;;;-1.10;77.90;;;0.26;53.98;103736.56;3082316;46;20496;-65
2024/01/09 04:37:06;;;;;;;4.33;2.40;;;-1.10;78.10;;;0.30;54.13;103739.97;3081816;46;21138;-65
2024/01/09 04:39:35;;;;;;;6.90;3.00;;;-1.10;78.00;;;0.31;53.42;103739.09;3082366;46;20613;-66
2024/01/09 04:42:03;;;;;;;4.57;2.77;;;-1.10;77.10;;;0.29;53.80;103733.06;3082147;46;20529;-66
2024/01/09 04:44:32;;;;;;;4.57;2.67;;;-1.10;77.90;;;0.30;53.98;103739.97;3082142;46;20458;-67
2024/01/09 04:47:00;;;;;;;5.33;3.60;;;-1.10;78.20;;;0.31;53.94;103741.69;3081094;46;20450;-67
2024/01/09 04:49:29;;;;;;;6.43;3.00;;;-1.10;77.90;;;0.30;53.98;103742.56;3082074;46;20521;-63
2024/01/09 04:51:58;;;;;;;6.20;3.00;;;-1.10;77.90;;;0.30;54.01;103734.78;3082243;46;20442;-67
2024/01/09 04:54:26;;;;;;;10.73;4.20;;;-1.10;78.00;;;0.32;54.07;103740.78;3082077;46;21127;-66
2024/01/09 04:56:54;;;;;;;5.83;2.80;;;-1.10;78.20;;;0.35;54.06;103738.13;3081410;46;20438;-67
2024/01/09 04:59:25;;;;;;;4.47;2.60;;;-1.00;77.80;;;0.31;53.99;103731.31;3081725;46;20541;-66
2024/01/09 05:01:54;;;;;;;6.93;2.90;;;-1.00;77.80;;;0.31;54.06;103731.31;3082067;46;20524;-65
2024/01/09 05:04:22;;;;;;;5.10;2.80;;;-1.00;78.10;;;0.31;54.10;103733.91;3081739;46;21626;-66
2024/01/09 05:06:51;;;;;;;3.53;2.10;;;-1.00;78.00;;;0.28;53.84;103736.56;3081603;46;20434;-66
2024/01/09 05:09:19;;;;;;;3.83;2.90;;;-1.10;77.90;;;0.25;54.06;103739.22;3081606;46;21339;-65
2024/01/09 05:11:47;;;;;;;5.77;3.10;;;-1.10;77.70;;;0.20;54.18;103738.47;3081543;46;20439;-66
2024/01/09 05:14:17;;;;;;;5.10;2.90;;;-1.10;78.30;;;0.17;54.55;103749.72;3081374;46;20438;-67
2024/01/09 05:16:45;;;;;;;5.33;3.37;;;-1.20;78.60;;;0.17;54.49;103748.91;3081283;46;20459;-64
2024/01/09 05:19:13;;;;;;;4.40;2.90;;;-1.20;78.80;;;0.19;54.58;103752.31;3081559;46;20462;-67
2024/01/09 05:21:42;;;;;;;3.87;2.67;;;-1.20;78.80;;;0.19;54.30;103736.78;3081533;46;20516;-66
2024/01/09 05:24:10;;;;;;;5.83;3.23;;;-1.20;78.70;;;0.17;54.29;103748.91;3081626;46;20510;-65
2024/01/09 05:26:39;;;;;;;6.40;3.17;;;-1.20;78.60;;;0.15;54.64;103754.09;3080709;46;20434;-66
2024/01/09 05:29:07;;;;;;;8.27;3.47;;;-1.20;78.80;;;0.14;54.68;103748.97;3081551;46;20446;-67
2024/01/09 05:31:43;;;;;;;6.10;3.60;;;-1.20;79.20;;;0.13;55.00;103744.66;3081405;46;20567;-64
2024/01/09 05:34:11;;;;;;;6.30;3.50;;;-1.20;79.70;;;0.16;55.20;103752.38;3081607;46;20467;-66
2024/01/09 05:36:40;;;;;;;4.57;2.97;;;-1.20;79.20;;;0.16;54.91;103760.13;3080442;46;20445;-65
2024/01/09 05:39:09;;;;;;;6.10;3.20;;;-1.20;79.50;;;0.15;54.99;103755.81;3081231;46;20438;-65
2024/01/09 05:41:37;;;;;;;6.43;3.27;;;-1.20;79.70;;;0.13;54.80;103753.28;3081532;46;20438;-64
2024/01/09 05:44:06;;;;;;;6.13;3.53;;;-1.20;79.80;;;0.13;55.50;103750.69;3081488;46;20445;-66
2024/01/09 05:46:34;;;;;;;7.63;3.53;;;-1.20;80.20;;;0.16;55.10;103757.53;3080904;46;20461;-66
2024/01/09 05:49:02;;;;;;;4.50;2.90;;;-1.20;80.30;;;0.16;55.14;103762.72;3080644;46;20470;-66
2024/01/09 05:51:32;;;;;;;5.13;3.73;;;-1.20;80.10;;;0.16;55.47;103762.72;3081661;46;20524;-66
2024/01/09 05:54:00;;;;;;;10.73;4.40;;;-1.20;80.00;;;0.16;55.46;103758.41;3080964;46;20569;-65
2024/01/09 05:56:29;;;;;;;7.60;3.60;;;-1.20;80.20;;;0.18;55.45;103755.78;3080888;46;20520;-67
2024/01/09 05:58:57;;;;;;;9.03;3.30;;;-1.20;80.20;;;0.16;55.65;103763.59;3080857;46;20536;-65
2024/01/09 06:01:26;;;;;;;6.40;3.60;;;-1.30;80.50;;;0.16;55.27;103758.41;3081029;46;20459;-67
2024/01/09 06:03:54;;;;;;;9.73;4.00;;;-1.20;80.40;;;0.15;55.59;103756.69;3081455;46;20458;-67
2024/01/09 06:06:23;;;;;;;7.23;3.87;;;-1.20;80.40;;;0.14;55.88;103759.31;3080490;46;20520;-65
2024/01/09 06:08:51;;;;;;;7.93;3.67;;;-1.20;81.40;;;0.13;55.95;103757.59;3080719;46;20439;-65
2024/01/09 06:11:20;;;;;;;5.90;3.37;;;-1.20;81.00;;;0.11;55.97;103759.38;3080998;46;20548;-66
2024/01/09 06:13:48;;;;;;;6.30;3.27;;;-1.30;81.20;;;0.09;56.03;103758.56;3081048;46;20514;-66
2024/01/09 06:16:16;;;;;;;8.57;3.83;;;-1.20;81.40;;;0.07;56.05;103757.75;3081290;46;20502;-66
2024/01/09 06:18:45;;;;;;;5.77;3.17;;;-1.30;81.20;;;0.04;56.11;103758.66;3080327;46;20475;-66
2024/01/09 06:21:13;;;;;;;7.17;3.67;;;-1.30;81.50;;;0.04;56.64;103757.81;3080739;46;20553;-66
2024/01/09 06:23:47;;;;;;;5.90;3.37;;;-1.30;81.70;;;0.03;56.37;103762.13;3081178;46;20438;-66
2024/01/09 06:26:15;;;;;;;5.80;3.67;;;-1.30;81.40;;;0.01;56.34;103769.06;3080869;46;20434;-67
2024/01/09 06:28:43;;;;;;;5.93;3.53;;;-1.40;82.00;;;0.00;56.67;103752.69;3080277;46;20576;-65
2024/01/09 06:31:13;;;;;;;7.40;4.13;;;-1.30;82.30;;;0.03;56.39;103758.66;3080768;46;20462;-66
2024/01/09 06:33:41;;;;;;;9.60;4.67;;;-1.40;81.70;;;0.02;56.51;103764.75;3080906;46;20462;-65
2024/01/09 06:36:10;;;;;;;6.87;4.17;;;-1.40;81.90;;;0.02;56.73;103763.03;3080634;46;21149;-65
2024/01/09 06:38:39;;;;;;;6.33;4.00;;;-1.40;82.20;;;-0.01;56.14;103758.75;3080088;46;20449;-66
2024/01/09 06:41:08;;;;;;;8.07;4.23;;;-1.40;81.70;;;-0.03;56.66;103768.31;3080808;46;20552;-64
2024/01/09 06:43:36;;;;;;;7.57;4.03;;;-1.40;82.20;;;-0.03;56.84;103757.94;3081019;46;20519;-67
2024/01/09 06:46:05;;;;;;;11.23;4.20;;;-1.40;82.30;;;-0.02;57.17;103754.47;3080725;46;20466;-66
2024/01/09 06:48:34;;;;;;;8.87;4.30;;;-1.40;82.40;;;-0.02;56.55;103757.03;3081513;46;21001;-67
2024/01/09 06:51:03;;;;;;;5.53;3.37;;;-1.40;82.00;;;-0.06;57.11;103755.41;3083257;46;20438;-66
2024/01/09 06:53:31;;;;;;;8.30;4.07;;;-1.40;83.40;;;-0.08;56.79;103749.41;3083121;46;21059;-66
2024/01/09 06:56:00;;;;;;;8.73;4.30;;;-1.50;82.30;;;-0.10;56.71;103756.38;3083448;46;20583;-66
2024/01/09 06:58:29;;;;;;;7.93;4.60;;;-1.50;82.30;;;-0.10;57.02;103751.19;3082350;46;20442;-66
2024/01/09 07:00:57;;;;;;;6.23;3.77;;;-1.50;83.10;;;-0.07;57.57;103755.44;3083310;46;20455;-67
2024/01/09 07:03:26;;;;;;;6.23;3.60;;;-1.50;83.20;;;-0.04;57.04;103750.19;3082876;46;20454;-66
2024/01/09 07:05:54;;;;;;;7.00;3.90;;;-1.40;83.00;;;-0.03;57.13;103757.09;3083158;46;20939;-65
2024/01/09 07:08:23;;;;;;;7.97;4.50;;;-1.40;83.30;;;0.00;57.12;103757.84;3082528;46;20470;-66
2024/01/09 07:10:51;;;;;;;6.87;4.37;;;-1.40;82.90;;;0.00;57.23;103757.84;3082808;46;21036;-66
2024/01/09 07:13:20;;;;;;;7.70;4.53;;;-1.40;83.00;;;-0.01;57.10;103756.19;3083636;46;20434;-66
2024/01/09 07:15:49;;;;;;;8.87;5.40;;;-1.40;82.50;;;-0.04;57.09;103756.22;3083291;46;20544;-66
2024/01/09 07:18:17;;;;;;;11.73;4.87;;;-1.40;82.60;;;-0.06;57.29;103763.19;3082508;46;20469;-65
2024/01/09 07:20:46;;;;;;;8.07;5.23;;;-1.40;83.20;;;-0.03;57.33;103765.72;3082962;46;20463;-66
2024/01/09 07:23:14;;;;;;;9.47;5.37;;;-1.40;83.20;;;0.02;57.38;103764.75;3082629;46;21117;-66
2024/01/09 07:25:47;;;;;;;7.00;4.93;;;-1.40;83.30;;;0.05;57.36;103775.06;3083318;46;20567;-65
2024/01/09 07:28:16;;;;;;;74.47;45.90;;;-1.40;83.00;;;0.06;57.36;103787.94;3082487;46;20445;-66
2024/01/09 07:30:45;;;;;;;31.63;18.13;;;-1.30;83.00;;;0.05;57.07;103788.00;3082953;46;20458;-66
2024/01/09 07:33:13;;;;;;;8.80;5.67;;;-1.30;82.50;;;0.00;56.92;103794.09;3083100;46;21011;-66
2024/01/09 07:35:42;;;;;;;8.83;5.20;;;-1.40;82.20;;;-0.03;57.17;103789.00;3082702;46;20492;-66
2024/01/09 07:38:10;;;;;;;10.53;4.67;;;-1.40;82.90;;;-0.01;57.56;103791.56;3082734;46;20445;-65
2024/01/09 07:40:39;;;;;;;8.77;4.83;;;-1.40;83.00;;;-0.02;56.63;103795.00;3083014;46;20438;-65
2024/01/09 07:43:07;;;;;;;8.07;4.83;;;-1.40;82.40;;;-0.07;57.20;103802.88;3082673;46;20488;-67
2024/01/09 07:45:36;;;;;;;7.73;4.87;;;-1.50;82.50;;;-0.07;57.50;103800.28;3082368;46;21069;-67
2024/01/09 07:48:05;;;;;;;7.93;5.77;;;-1.40;83.30;;;-0.06;57.53;103806.31;3081600;46;20457;-63
2024/01/09 07:50:34;;;;;;;10.50;5.37;;;-1.40;83.40;;;-0.05;57.23;103805.44;3081720;46;20439;-65
2024/01/09 07:53:02;;;;;;;7.57;4.30;;;-1.40;83.50;;;-0.03;57.43;103809.72;3082792;46;21090;-65
2024/01/09 07:55:32;;;;;;;7.97;4.80;;;-1.50;83.20;;;-0.03;57.15;103803.69;3082784;46;20520;-66
2024/01/09 07:58:00;;;;;;;12.43;5.33;;;-1.40;82.90;;;-0.08;56.53;103806.34;3082316;46;20488;-68
2024/01/09 08:00:32;;;;;;;6.33;4.67;;;-1.50;82.20;;;-0.11;57.11;103803.81;3081286;46;21079;-67
2024/01/09 08:03:05;;;;;;;7.93;4.77;;;-1.50;82.50;;;-0.11;57.17;103801.22;3081856;43;21031;-66
2024/01/09 08:05:34;;;;;;;7.83;4.73;;;-1.50;83.20;;;-0.12;57.31;103807.28;3081828;46;21030;-67
2024/01/09 08:08:03;;;;;;;7.40;4.97;;;-1.50;83.20;;;-0.13;57.07;103803.00;3080947;46;20446;-67
2024/01/09 08:10:31;;;;;;;12.93;7.27;;;-1.50;83.20;;;-0.14;57.29;103806.47;3081353;46;20450;-66
2024/01/09 08:13:00;;;;;;;9.30;5.70;;;-1.60;83.20;;;-0.15;57.38;103799.59;3080744;43;20524;-65
2024/01/09 08:15:29;;;;;;;8.00;5.50;;;-1.60;83.30;;;-0.13;57.71;103803.00;3082140;46;20450;-66
2024/01/09 08:17:58;;;;;;;11.47;7.27;;;-1.60;83.90;;;-0.10;57.63;103805.53;3081170;46;20470;-67
2024/01/09 08:20:26;;;;;;;25.73;13.53;;;-1.50;83.70;;;-0.12;57.36;103799.50;3081573;46;20438;-67
2024/01/09 08:22:55;;;;;;;12.93;7.63;;;-1.60;83.40;;;-0.13;56.97;103805.59;3082535;46;20438;-65
2024/01/09 08:25:23;;;;;;;8.40;5.40;;;-1.50;83.40;;;-0.16;57.30;103808.22;3081116;46;20491;-67
2024/01/09 08:27:52;;;;;;;8.57;4.93;;;-1.60;83.20;;;-0.18;57.62;103804.81;3081411;46;20446;-66
2024/01/09 08:30:20;;;;;;;9.10;4.60;;;-1.60;83.90;;;-0.17;57.63;103805.69;3081367;46;21043;-66
2024/01/09 08:32:49;;;;;;;8.03;5.47;;;-1.60;83.70;;;-0.19;57.48;103803.09;3081596;46;20461;-67
2024/01/09 08:35:17;;;;;;;8.20;5.43;;;-1.70;83.60;;;-0.22;57.38;103802.31;3081156;46;20440;-65
2024/01/09 08:37:46;;;;;;;10.63;5.77;;;-1.70;83.80;;;-0.28;57.77;103803.28;3081340;46;20446;-64
2024/01/09 08:40:14;;;;;;;10.37;5.07;;;-1.70;83.90;;;-0.27;57.84;103805.00;3079890;43;20432;-67
2024/01/09 08:42:46;;;;;;;9.17;5.23;;;-1.70;84.30;;;-0.26;57.85;103801.53;3081266;46;20439;-67
2024/01/09 08:45:18;;;;;;;9.27;5.10;;;-1.70;84.30;;;-0.24;58.15;103804.94;3079837;46;20434;-66
2024/01/09 08:47:46;;;;;;;9.07;6.03;;;-1.70;84.50;;;-0.20;57.81;103803.16;3080239;46;21055;-66
2024/01/09 08:50:35;;;;;;;7.17;4.97;;;-1.70;84.40;;;-0.25;57.73;103805.81;3081166;46;20447;-65
2024/01/09 08:53:03;;;;;;;7.73;4.87;;;-1.70;84.00;;;-0.25;57.44;103812.72;3080687;46;20426;-64
2024/01/09 08:55:32;;;;;;;9.03;4.97;;;-1.70;83.50;;;-0.29;57.66;103811.94;3080704;46;20431;-66
2024/01/09 08:58:03;;;;;;;13.37;5.73;;;-1.80;83.50;;;-0.28;57.75;103803.28;3079114;43;20497;-65
2024/01/09 09:00:32;;;;;;;9.63;6.10;;;-1.80;84.70;;;-0.24;58.17;103810.09;3080688;46;20440;-67
2024/01/09 09:03:04;;;;;;;9.63;5.27;;;-1.70;84.60;;;-0.19;57.75;103816.03;3080111;46;21079;-66
2024/01/09 09:05:32;;;;;;;19.10;10.40;;;-1.70;84.30;;;-0.14;57.85;103810.78;3080638;46;20438;-65
2024/01/09 09:08:04;;;;;;;13.30;6.97;;;-1.70;84.10;;;-0.12;57.12;103812.44;3078789;46;20618;-67
2024/01/09 09:10:33;;;;;;;18.63;10.20;;;-1.70;83.80;;;-0.10;57.20;103818.47;3079637;46;20509;-65
2024/01/09 09:13:03;;;;;;;10.17;6.13;;;-1.60;83.70;;;-0.05;57.26;103811.44;3080339;46;20988;-67
2024/01/09 09:15:31;;;;;;;7.80;4.57;;;-1.60;83.10;;;-0.01;57.02;103818.28;3079177;46;20478;-67
2024/01/09 09:18:00;;;;;;;8.20;4.60;;;-1.60;83.00;;;0.01;56.16;103810.47;3080165;46;20539;-66
2024/01/09 09:20:29;;;;;;;11.33;5.37;;;-1.50;81.60;;;0.00;55.80;103813.97;3080463;43;20525;-67
2024/01/09 09:22:58;;;;;;;8.43;4.53;;;-1.50;81.20;;;0.00;56.42;103809.63;3080134;46;21002;-66
2024/01/09 09:25:29;;;;;;;6.33;4.17;;;-1.50;81.60;;;0.04;56.09;103814.75;3080490;46;20456;-67
2024/01/09 09:27:59;;;;;;;8.43;5.23;;;-1.50;81.40;;;0.08;56.02;103817.25;3079495;46;20487;-67
2024/01/09 09:30:28;;;;;;;7.10;4.20;;;-1.50;81.60;;;0.15;56.21;103824.00;3079694;46;20435;-65
2024/01/09 09:33:04;;;;;;;7.77;4.87;;;-1.40;81.40;;;0.19;55.68;103815.28;3091129;45;21154;-65
2024/01/09 09:35:42;;;;;;;6.23;3.90;;;-1.40;81.20;;;0.24;55.71;103807.44;3090919;46;20437;-66
2024/01/09 09:38:14;;;;;;;6.97;4.43;;;-1.30;81.20;;;0.27;55.56;103812.53;3091577;46;21145;-67
2024/01/09 09:40:43;;;;;;;7.97;4.40;;;-1.30;80.80;;;0.29;55.21;103810.75;3091660;43;20464;-67
2024/01/09 09:43:25;;;;;;;6.43;4.33;;;-1.30;80.10;;;0.32;55.10;103810.69;3091178;46;20461;-67
2024/01/09 09:45:58;;;;;;;5.07;4.07;;;-1.30;79.80;;;0.34;54.74;103814.97;3091666;46;20437;-66
2024/01/09 09:48:31;;;;;;;8.57;4.50;;;-1.20;79.30;;;0.41;54.85;103810.50;3091398;46;20655;-66
2024/01/09 09:51:01;;;;;;;7.00;3.93;;;-1.20;79.70;;;0.48;54.37;103812.06;3091069;46;20996;-66
2024/01/09 09:53:31;;;;;;;7.77;4.33;;;-1.20;79.30;;;0.54;54.32;103811.94;3090800;46;21076;-66
2024/01/09 09:56:00;;;;;;;6.93;4.70;;;-1.10;79.20;;;0.61;54.11;103803.16;3091699;46;21077;-66
2024/01/09 09:58:29;;;;;;;9.77;4.07;;;-1.00;78.80;;;0.67;53.77;103809.03;3092212;43;20458;-66
2024/01/09 10:00:59;;;;;;;8.40;5.17;;;-1.00;79.00;;;0.71;53.22;103820.19;3092091;46;20540;-67
2024/01/09 10:03:32;;;;;;;9.93;5.83;;;-0.90;77.40;;;0.72;53.08;103805.47;3091561;46;20474;-66
2024/01/09 10:06:06;;;;;;;5.73;4.00;;;-0.90;76.90;;;0.77;52.77;103798.44;3092967;46;20544;-65
2024/01/09 10:08:35;;;;;;;8.87;4.57;;;-0.80;76.50;;;0.84;52.51;103795.69;3092136;46;20478;-66
2024/01/09 10:11:04;;;;;;;6.27;4.17;;;-0.80;76.10;;;0.93;51.64;103794.63;3091119;46;20432;-66
2024/01/09 10:13:32;;;;;;;6.83;3.47;;;-0.70;75.60;;;1.34;52.09;103792.69;3092156;46;20430;-66
2024/01/09 10:16:02;;;;;;;7.63;4.63;;;-0.60;76.20;;;2.00;51.67;103784.81;3093161;46;20448;-67
2024/01/09 10:18:32;;;;;;;7.47;3.67;;;-0.40;76.50;;;2.80;50.68;103788.44;3091136;46;20465;-67
2024/01/09 10:21:01;;;;;;;5.85;4.22;;;0.00;76.90;;;3.77;49.11;103781.63;3090101;46;22356;-67
2024/01/09 10:23:34;;;;;;;9.97;5.17;;;0.60;76.30;;;4.57;47.60;103780.28;3091514;46;21012;-67
2024/01/09 10:26:04;;;;;;;5.53;3.70;;;1.00;74.20;;;5.30;45.19;103773.75;3093302;46;20436;-67